ANZ663 YMML-YSSY
Flight info
| Callsign | ANZ663 |
|---|---|
| Flight time | 1h 3m |
| Altitude | 37000 |
| Route | ML H129 DOSEL Y59 RIVET |
| Aircraft | MD11/H-SDE1E2E3FGHIJ2J3J4J5M1RWXY/LB1D1 |
Departure
| Time | 2026-05-08 05:29 |
|---|---|
| Airport | Melbourne Airport (YMML) |
Arrival
| Time | 2026-05-08 06:32 |
|---|---|
| Airport | Sydney Kingsford Smith International Airport (YSSY) |
| Time | Latitude | Longitude | Altitude | Speed | Heading |
|---|---|---|---|---|---|
| 2026-05-08 04:54 | -37.66913 | 144.84513 | 399 ft | 0 kts | 11° |
| 2026-05-08 05:16 | -37.66934 | 144.84507 | 396 ft | 4 kts | 14° |
| 2026-05-08 05:16 | -37.66960 | 144.84498 | 396 ft | 4 kts | 13° |
| 2026-05-08 05:16 | -37.66986 | 144.84494 | 396 ft | 4 kts | 347° |
| 2026-05-08 05:16 | -37.67008 | 144.84505 | 394 ft | 4 kts | 318° |
| 2026-05-08 05:17 | -37.67020 | 144.84531 | 394 ft | 4 kts | 270° |
| 2026-05-08 05:17 | -37.67016 | 144.84564 | 392 ft | 4 kts | 255° |
| 2026-05-08 05:17 | -37.67011 | 144.84590 | 393 ft | 0 kts | 262° |
| 2026-05-08 05:20 | -37.67014 | 144.84547 | 391 ft | 9 kts | 265° |
| 2026-05-08 05:20 | -37.67029 | 144.84464 | 396 ft | 12 kts | 247° |
| 2026-05-08 05:21 | -37.67054 | 144.84340 | 394 ft | 18 kts | 261° |
| 2026-05-08 05:21 | -37.67074 | 144.84177 | 391 ft | 13 kts | 261° |
| 2026-05-08 05:21 | -37.67081 | 144.84092 | 390 ft | 3 kts | 278° |
| 2026-05-08 05:21 | -37.67061 | 144.84050 | 391 ft | 8 kts | 317° |
| 2026-05-08 05:22 | -37.66990 | 144.84021 | 393 ft | 15 kts | 351° |
| 2026-05-08 05:22 | -37.66860 | 144.83997 | 396 ft | 18 kts | 352° |
| 2026-05-08 05:22 | -37.66743 | 144.83975 | 401 ft | 5 kts | 352° |
| 2026-05-08 05:22 | -37.66724 | 144.83972 | 398 ft | 1 kts | 353° |
| 2026-05-08 05:23 | -37.66697 | 144.83967 | 397 ft | 6 kts | 351° |
| 2026-05-08 05:23 | -37.66652 | 144.83958 | 405 ft | 0 kts | 351° |
| 2026-05-08 05:23 | -37.66642 | 144.83956 | 404 ft | 5 kts | 351° |
| 2026-05-08 05:23 | -37.66600 | 144.83948 | 408 ft | 0 kts | 351° |
| 2026-05-08 05:24 | -37.66582 | 144.83945 | 405 ft | 7 kts | 353° |
| 2026-05-08 05:24 | -37.66527 | 144.83981 | 409 ft | 10 kts | 57° |
| 2026-05-08 05:24 | -37.66522 | 144.84094 | 411 ft | 17 kts | 93° |
| 2026-05-08 05:24 | -37.66530 | 144.84238 | 411 ft | 19 kts | 91° |
| 2026-05-08 05:25 | -37.66514 | 144.84426 | 412 ft | 24 kts | 82° |
| 2026-05-08 05:25 | -37.66497 | 144.84573 | 408 ft | 10 kts | 82° |
| 2026-05-08 05:25 | -37.66482 | 144.84683 | 412 ft | 15 kts | 74° |
| 2026-05-08 05:25 | -37.66412 | 144.84777 | 411 ft | 13 kts | 27° |
| 2026-05-08 05:26 | -37.66384 | 144.84782 | 416 ft | 6 kts | 4° |
| 2026-05-08 05:26 | -37.66364 | 144.84784 | 416 ft | 0 kts | 4° |
| 2026-05-08 05:26 | -37.66360 | 144.84784 | 414 ft | 3 kts | 4° |
| 2026-05-08 05:26 | -37.66322 | 144.84784 | 411 ft | 9 kts | 358° |
| 2026-05-08 05:27 | -37.66251 | 144.84742 | 415 ft | 9 kts | 320° |
| 2026-05-08 05:27 | -37.66217 | 144.84643 | 411 ft | 14 kts | 275° |
| 2026-05-08 05:27 | -37.66217 | 144.84630 | 411 ft | 0 kts | 275° |
| 2026-05-08 05:28 | -37.66213 | 144.84581 | 413 ft | 21 kts | 275° |
| 2026-05-08 05:28 | -37.66176 | 144.83905 | 413 ft | 128 kts | 274° |
| 2026-05-08 05:28 | -37.66090 | 144.82455 | 573 ft | 191 kts | 268° |
| 2026-05-08 05:29 | -37.65991 | 144.80727 | 1659 ft | 191 kts | 268° |
| 2026-05-08 05:29 | -37.65913 | 144.79226 | 3460 ft | 167 kts | 265° |
| 2026-05-08 05:29 | -37.65860 | 144.77716 | 4462 ft | 187 kts | 265° |
| 2026-05-08 05:29 | -37.65773 | 144.75913 | 4857 ft | 228 kts | 267° |
| 2026-05-08 05:30 | -37.65652 | 144.73758 | 4955 ft | 251 kts | 268° |
| 2026-05-08 05:30 | -37.65511 | 144.71532 | 4947 ft | 255 kts | 268° |
| 2026-05-08 05:30 | -37.65341 | 144.69307 | 4952 ft | 255 kts | 272° |
| 2026-05-08 05:30 | -37.64823 | 144.67159 | 4960 ft | 264 kts | 291° |
| 2026-05-08 05:31 | -37.63557 | 144.65393 | 5992 ft | 274 kts | 319° |
| 2026-05-08 05:31 | -37.61803 | 144.64244 | 7114 ft | 292 kts | 335° |
| 2026-05-08 05:31 | -37.59866 | 144.63431 | 8237 ft | 299 kts | 340° |
| 2026-05-08 05:31 | -37.57813 | 144.62853 | 9352 ft | 307 kts | 350° |
| 2026-05-08 05:32 | -37.55638 | 144.62838 | 10339 ft | 324 kts | 5° |
| 2026-05-08 05:32 | -37.53363 | 144.63673 | 10472 ft | 364 kts | 28° |
| 2026-05-08 05:32 | -37.51300 | 144.65689 | 10977 ft | 382 kts | 50° |
| 2026-05-08 05:32 | -37.49838 | 144.67914 | 11820 ft | 386 kts | 56° |
| 2026-05-08 05:33 | -37.48248 | 144.70673 | 12823 ft | 392 kts | 57° |
| 2026-05-08 05:33 | -37.46725 | 144.73554 | 13841 ft | 397 kts | 61° |
| 2026-05-08 05:33 | -37.45329 | 144.76577 | 14756 ft | 403 kts | 64° |
| 2026-05-08 05:33 | -37.43965 | 144.79680 | 15607 ft | 408 kts | 64° |
| 2026-05-08 05:34 | -37.42601 | 144.82797 | 16487 ft | 412 kts | 64° |
| 2026-05-08 05:34 | -37.41205 | 144.85957 | 17314 ft | 417 kts | 63° |
| 2026-05-08 05:34 | -37.40239 | 144.88122 | 17920 ft | 420 kts | 63° |
| 2026-05-08 05:34 | -37.38794 | 144.91330 | 18724 ft | 424 kts | 63° |
| 2026-05-08 05:35 | -37.37329 | 144.94560 | 19429 ft | 428 kts | 63° |
| 2026-05-08 05:35 | -37.35836 | 144.97839 | 20068 ft | 434 kts | 63° |
| 2026-05-08 05:35 | -37.34329 | 145.01139 | 20755 ft | 437 kts | 63° |
| 2026-05-08 05:35 | -37.32810 | 145.04460 | 21492 ft | 440 kts | 63° |
| 2026-05-08 05:36 | -37.31279 | 145.07804 | 22196 ft | 444 kts | 63° |
| 2026-05-08 05:36 | -37.29750 | 145.11144 | 22755 ft | 450 kts | 63° |
| 2026-05-08 05:36 | -37.28191 | 145.14542 | 23149 ft | 450 kts | 63° |
| 2026-05-08 05:36 | -37.26622 | 145.17960 | 23792 ft | 453 kts | 63° |
| 2026-05-08 05:37 | -37.25039 | 145.21405 | 24388 ft | 456 kts | 63° |
| 2026-05-08 05:37 | -37.23449 | 145.24863 | 25030 ft | 460 kts | 63° |
| 2026-05-08 05:37 | -37.21840 | 145.28358 | 25680 ft | 464 kts | 63° |
| 2026-05-08 05:37 | -37.20218 | 145.31877 | 26324 ft | 468 kts | 63° |
| 2026-05-08 05:38 | -37.18497 | 145.35376 | 26940 ft | 474 kts | 59° |
| 2026-05-08 05:38 | -37.16632 | 145.38803 | 27556 ft | 479 kts | 58° |
| 2026-05-08 05:38 | -37.14681 | 145.42220 | 28171 ft | 484 kts | 57° |
| 2026-05-08 05:38 | -37.12689 | 145.45654 | 28727 ft | 490 kts | 57° |
| 2026-05-08 05:39 | -37.10674 | 145.49124 | 29312 ft | 495 kts | 57° |
| 2026-05-08 05:39 | -37.08647 | 145.52630 | 29928 ft | 499 kts | 57° |
| 2026-05-08 05:39 | -37.06611 | 145.56169 | 30522 ft | 502 kts | 57° |
| 2026-05-08 05:39 | -37.04576 | 145.59713 | 31177 ft | 501 kts | 57° |
| 2026-05-08 05:40 | -37.02549 | 145.63248 | 31867 ft | 499 kts | 57° |
| 2026-05-08 05:40 | -37.00528 | 145.66771 | 32531 ft | 497 kts | 58° |
| 2026-05-08 05:40 | -36.98520 | 145.70271 | 33182 ft | 496 kts | 58° |
| 2026-05-08 05:40 | -36.96513 | 145.73764 | 33827 ft | 494 kts | 58° |
| 2026-05-08 05:41 | -36.94502 | 145.77262 | 34238 ft | 493 kts | 58° |
| 2026-05-08 05:41 | -36.92498 | 145.80743 | 34607 ft | 492 kts | 58° |
| 2026-05-08 05:41 | -36.90507 | 145.84197 | 34961 ft | 490 kts | 58° |
| 2026-05-08 05:41 | -36.88510 | 145.87657 | 35159 ft | 490 kts | 58° |
| 2026-05-08 05:42 | -36.86507 | 145.91127 | 35201 ft | 494 kts | 57° |
| 2026-05-08 05:42 | -36.82475 | 145.98100 | 35214 ft | 496 kts | 57° |
| 2026-05-08 05:43 | -36.78434 | 146.05070 | 35226 ft | 496 kts | 57° |
| 2026-05-08 05:43 | -36.74375 | 146.12057 | 35204 ft | 498 kts | 57° |
| 2026-05-08 05:44 | -36.70308 | 146.19035 | 35203 ft | 498 kts | 57° |
| 2026-05-08 05:44 | -36.66214 | 146.25999 | 35200 ft | 498 kts | 57° |
| 2026-05-08 05:45 | -36.62124 | 146.32969 | 35195 ft | 498 kts | 57° |
| 2026-05-08 05:45 | -36.58064 | 146.39897 | 35192 ft | 498 kts | 57° |
| 2026-05-08 05:46 | -36.53977 | 146.46862 | 35192 ft | 498 kts | 57° |
| 2026-05-08 05:46 | -36.49877 | 146.53833 | 35192 ft | 498 kts | 57° |
| 2026-05-08 05:47 | -36.45775 | 146.60795 | 35191 ft | 499 kts | 56° |
| 2026-05-08 05:47 | -36.41688 | 146.67716 | 35190 ft | 500 kts | 56° |
| 2026-05-08 05:48 | -36.37574 | 146.74668 | 35189 ft | 500 kts | 56° |
| 2026-05-08 05:48 | -36.33457 | 146.81610 | 35188 ft | 499 kts | 56° |
| 2026-05-08 05:49 | -36.29334 | 146.88549 | 35193 ft | 500 kts | 56° |
| 2026-05-08 05:49 | -36.25217 | 146.95463 | 35186 ft | 500 kts | 56° |
| 2026-05-08 05:50 | -36.21076 | 147.02397 | 35178 ft | 500 kts | 56° |
| 2026-05-08 05:50 | -36.16922 | 147.09285 | 35184 ft | 499 kts | 55° |
| 2026-05-08 05:51 | -36.12758 | 147.16180 | 35186 ft | 500 kts | 56° |
| 2026-05-08 05:51 | -36.08589 | 147.23088 | 35184 ft | 501 kts | 56° |
| 2026-05-08 05:52 | -36.04424 | 147.29984 | 35183 ft | 500 kts | 55° |
| 2026-05-08 05:52 | -36.00260 | 147.36864 | 35187 ft | 500 kts | 55° |
| 2026-05-08 05:53 | -35.96080 | 147.43756 | 35191 ft | 503 kts | 55° |
| 2026-05-08 05:53 | -35.91879 | 147.50670 | 35189 ft | 503 kts | 55° |
| 2026-05-08 05:54 | -35.87675 | 147.57574 | 35188 ft | 503 kts | 55° |
| 2026-05-08 05:54 | -35.83462 | 147.64471 | 35193 ft | 503 kts | 55° |
| 2026-05-08 05:55 | -35.79253 | 147.71322 | 35189 ft | 506 kts | 55° |
| 2026-05-08 05:55 | -35.75009 | 147.78234 | 35195 ft | 506 kts | 55° |
| 2026-05-08 05:56 | -35.70768 | 147.85141 | 35194 ft | 506 kts | 55° |
| 2026-05-08 05:56 | -35.66523 | 147.92044 | 35198 ft | 506 kts | 55° |
| 2026-05-08 05:57 | -35.62262 | 147.98960 | 35201 ft | 508 kts | 54° |
| 2026-05-08 05:57 | -35.57990 | 148.05878 | 35198 ft | 508 kts | 54° |
| 2026-05-08 05:58 | -35.53712 | 148.12791 | 35196 ft | 508 kts | 54° |
| 2026-05-08 05:58 | -35.49431 | 148.19696 | 35192 ft | 509 kts | 54° |
| 2026-05-08 05:59 | -35.45121 | 148.26635 | 35199 ft | 512 kts | 54° |
| 2026-05-08 05:59 | -35.40789 | 148.33580 | 35196 ft | 512 kts | 54° |
| 2026-05-08 06:00 | -35.36491 | 148.40469 | 35184 ft | 512 kts | 54° |
| 2026-05-08 06:00 | -35.32171 | 148.47408 | 35196 ft | 513 kts | 53° |
| 2026-05-08 06:01 | -35.27825 | 148.54381 | 35190 ft | 516 kts | 54° |
| 2026-05-08 06:01 | -35.23461 | 148.61367 | 35174 ft | 516 kts | 54° |
| 2026-05-08 06:02 | -35.19093 | 148.68346 | 35178 ft | 516 kts | 53° |
| 2026-05-08 06:02 | -35.14720 | 148.75319 | 35183 ft | 516 kts | 53° |
| 2026-05-08 06:03 | -35.10341 | 148.82287 | 35166 ft | 518 kts | 54° |
| 2026-05-08 06:03 | -35.05946 | 148.89268 | 35166 ft | 518 kts | 53° |
| 2026-05-08 06:04 | -35.01576 | 148.96194 | 35177 ft | 518 kts | 53° |
| 2026-05-08 06:04 | -34.97161 | 149.03178 | 35180 ft | 519 kts | 53° |
| 2026-05-08 06:05 | -34.92775 | 149.10098 | 35177 ft | 520 kts | 53° |
| 2026-05-08 06:05 | -34.88248 | 149.17184 | 35184 ft | 520 kts | 53° |
| 2026-05-08 06:06 | -34.83888 | 149.24014 | 35176 ft | 520 kts | 53° |
| 2026-05-08 06:06 | -34.79449 | 149.30975 | 35172 ft | 520 kts | 53° |
| 2026-05-08 06:07 | -34.75047 | 149.37871 | 34797 ft | 505 kts | 53° |
| 2026-05-08 06:07 | -34.72978 | 149.41292 | 34435 ft | 503 kts | 58° |
| 2026-05-08 06:07 | -34.71152 | 149.44914 | 33714 ft | 501 kts | 63° |
| 2026-05-08 06:07 | -34.69501 | 149.48641 | 33004 ft | 501 kts | 64° |
| 2026-05-08 06:08 | -34.67918 | 149.52415 | 32333 ft | 503 kts | 65° |
| 2026-05-08 06:08 | -34.66340 | 149.56210 | 31687 ft | 505 kts | 65° |
| 2026-05-08 06:08 | -34.64738 | 149.60020 | 31027 ft | 507 kts | 64° |
| 2026-05-08 06:08 | -34.63112 | 149.63829 | 30372 ft | 509 kts | 64° |
| 2026-05-08 06:09 | -34.61465 | 149.67641 | 29608 ft | 511 kts | 63° |
| 2026-05-08 06:09 | -34.59803 | 149.71457 | 28910 ft | 512 kts | 63° |
| 2026-05-08 06:09 | -34.58135 | 149.75271 | 28241 ft | 512 kts | 63° |
| 2026-05-08 06:09 | -34.56465 | 149.79083 | 27546 ft | 510 kts | 63° |
| 2026-05-08 06:10 | -34.54806 | 149.82865 | 26858 ft | 505 kts | 63° |
| 2026-05-08 06:10 | -34.53167 | 149.86602 | 26166 ft | 499 kts | 63° |
| 2026-05-08 06:10 | -34.51545 | 149.90295 | 25513 ft | 493 kts | 64° |
| 2026-05-08 06:10 | -34.49937 | 149.93943 | 24851 ft | 489 kts | 64° |
| 2026-05-08 06:11 | -34.48336 | 149.97554 | 24132 ft | 483 kts | 64° |
| 2026-05-08 06:11 | -34.46769 | 150.01081 | 23378 ft | 477 kts | 64° |
| 2026-05-08 06:11 | -34.45205 | 150.04602 | 22637 ft | 471 kts | 64° |
| 2026-05-08 06:11 | -34.43662 | 150.08079 | 21920 ft | 466 kts | 64° |
| 2026-05-08 06:12 | -34.42133 | 150.11524 | 21236 ft | 462 kts | 64° |
| 2026-05-08 06:12 | -34.40623 | 150.14926 | 20577 ft | 457 kts | 64° |
| 2026-05-08 06:12 | -34.39126 | 150.18295 | 19916 ft | 452 kts | 64° |
| 2026-05-08 06:12 | -34.37639 | 150.21639 | 19251 ft | 449 kts | 64° |
| 2026-05-08 06:13 | -34.36160 | 150.24965 | 18599 ft | 445 kts | 64° |
| 2026-05-08 06:13 | -34.34718 | 150.28202 | 17897 ft | 440 kts | 64° |
| 2026-05-08 06:13 | -34.33253 | 150.31487 | 17204 ft | 436 kts | 64° |
| 2026-05-08 06:13 | -34.31818 | 150.34701 | 16547 ft | 432 kts | 64° |
| 2026-05-08 06:14 | -34.30412 | 150.37848 | 15935 ft | 429 kts | 64° |
| 2026-05-08 06:14 | -34.28997 | 150.41012 | 15309 ft | 425 kts | 64° |
| 2026-05-08 06:14 | -34.27594 | 150.44142 | 14703 ft | 422 kts | 64° |
| 2026-05-08 06:14 | -34.26201 | 150.47245 | 14122 ft | 416 kts | 64° |
| 2026-05-08 06:15 | -34.24831 | 150.50296 | 13533 ft | 405 kts | 64° |
| 2026-05-08 06:15 | -34.22268 | 150.55999 | 12932 ft | 374 kts | 64° |
| 2026-05-08 06:15 | -34.21040 | 150.58742 | 12343 ft | 369 kts | 64° |
| 2026-05-08 06:16 | -34.19825 | 150.61454 | 11704 ft | 364 kts | 64° |
| 2026-05-08 06:16 | -34.18629 | 150.64124 | 10958 ft | 359 kts | 64° |
| 2026-05-08 06:16 | -34.17445 | 150.66758 | 10270 ft | 354 kts | 64° |
| 2026-05-08 06:16 | -34.16300 | 150.69317 | 9551 ft | 348 kts | 65° |
| 2026-05-08 06:17 | -34.14545 | 150.74380 | 8873 ft | 307 kts | 72° |
| 2026-05-08 06:17 | -34.13778 | 150.76767 | 8203 ft | 303 kts | 73° |
| 2026-05-08 06:17 | -34.12995 | 150.79116 | 7540 ft | 299 kts | 73° |
| 2026-05-08 06:18 | -34.12210 | 150.81401 | 7148 ft | 296 kts | 72° |
| 2026-05-08 06:18 | -34.11426 | 150.83686 | 6784 ft | 295 kts | 72° |
| 2026-05-08 06:18 | -34.10637 | 150.85972 | 6423 ft | 293 kts | 73° |
| 2026-05-08 06:18 | -34.09845 | 150.88231 | 6142 ft | 292 kts | 72° |
| 2026-05-08 06:19 | -34.09069 | 150.90453 | 6094 ft | 291 kts | 72° |
| 2026-05-08 06:19 | -34.08283 | 150.92703 | 6092 ft | 291 kts | 72° |
| 2026-05-08 06:19 | -34.07494 | 150.94951 | 6083 ft | 289 kts | 73° |
| 2026-05-08 06:19 | -34.06719 | 150.97127 | 5140 ft | 284 kts | 72° |
| 2026-05-08 06:20 | -34.05938 | 150.99325 | 4285 ft | 281 kts | 72° |
| 2026-05-08 06:20 | -34.05436 | 151.00774 | 4042 ft | 286 kts | 72° |
| 2026-05-08 06:20 | -34.04697 | 151.03009 | 3671 ft | 288 kts | 72° |
| 2026-05-08 06:20 | -34.03984 | 151.05255 | 3302 ft | 286 kts | 72° |
| 2026-05-08 06:21 | -34.03289 | 151.07492 | 3108 ft | 285 kts | 72° |
| 2026-05-08 06:21 | -34.02609 | 151.09735 | 2988 ft | 284 kts | 72° |
| 2026-05-08 06:21 | -34.01944 | 151.11976 | 2995 ft | 284 kts | 72° |
| 2026-05-08 06:21 | -34.01282 | 151.14222 | 2973 ft | 284 kts | 72° |
| 2026-05-08 06:22 | -34.00629 | 151.16473 | 2986 ft | 284 kts | 73° |
| 2026-05-08 06:22 | -33.99976 | 151.18723 | 2983 ft | 285 kts | 72° |
| 2026-05-08 06:22 | -33.99319 | 151.20975 | 2990 ft | 285 kts | 72° |
| 2026-05-08 06:22 | -33.98669 | 151.23226 | 2985 ft | 284 kts | 73° |
| 2026-05-08 06:23 | -33.98019 | 151.25474 | 2982 ft | 284 kts | 72° |
| 2026-05-08 06:23 | -33.97368 | 151.27722 | 2984 ft | 284 kts | 73° |
| 2026-05-08 06:23 | -33.96709 | 151.29967 | 2993 ft | 284 kts | 72° |
| 2026-05-08 06:23 | -33.96061 | 151.32205 | 2986 ft | 283 kts | 73° |
| 2026-05-08 06:24 | -33.95408 | 151.34451 | 2991 ft | 285 kts | 73° |
| 2026-05-08 06:24 | -33.94744 | 151.36711 | 2990 ft | 287 kts | 73° |
| 2026-05-08 06:24 | -33.94087 | 151.38923 | 2969 ft | 268 kts | 72° |
| 2026-05-08 06:24 | -33.93483 | 151.40934 | 2989 ft | 249 kts | 73° |
| 2026-05-08 06:25 | -33.92899 | 151.42899 | 2987 ft | 249 kts | 73° |
| 2026-05-08 06:25 | -33.92251 | 151.44829 | 2977 ft | 249 kts | 61° |
| 2026-05-08 06:25 | -33.91085 | 151.46239 | 2969 ft | 237 kts | 26° |
| 2026-05-08 06:25 | -33.89541 | 151.46717 | 2985 ft | 225 kts | 353° |
| 2026-05-08 06:26 | -33.88131 | 151.46187 | 2979 ft | 210 kts | 317° |
| 2026-05-08 06:26 | -33.87322 | 151.44867 | 2991 ft | 191 kts | 278° |
| 2026-05-08 06:26 | -33.87234 | 151.43315 | 3019 ft | 189 kts | 272° |
| 2026-05-08 06:26 | -33.86881 | 151.41770 | 3001 ft | 191 kts | 273° |
| 2026-05-08 06:27 | -33.87071 | 151.40277 | 2965 ft | 180 kts | 238° |
| 2026-05-08 06:27 | -33.87883 | 151.39145 | 3025 ft | 179 kts | 225° |
| 2026-05-08 06:27 | -33.88779 | 151.38100 | 3002 ft | 180 kts | 225° |
| 2026-05-08 06:27 | -33.89417 | 151.36812 | 2972 ft | 183 kts | 248° |
| 2026-05-08 06:28 | -33.89806 | 151.35381 | 2832 ft | 172 kts | 248° |
| 2026-05-08 06:28 | -33.90173 | 151.34060 | 2605 ft | 166 kts | 250° |
| 2026-05-08 06:28 | -33.90498 | 151.32737 | 2386 ft | 158 kts | 251° |
| 2026-05-08 06:28 | -33.90780 | 151.31551 | 2131 ft | 141 kts | 252° |
| 2026-05-08 06:29 | -33.91048 | 151.30434 | 1989 ft | 138 kts | 252° |
| 2026-05-08 06:29 | -33.91314 | 151.29315 | 1800 ft | 140 kts | 252° |
| 2026-05-08 06:29 | -33.91582 | 151.28191 | 1636 ft | 139 kts | 253° |
| 2026-05-08 06:29 | -33.91831 | 151.27133 | 1396 ft | 124 kts | 252° |
| 2026-05-08 06:30 | -33.92065 | 151.26148 | 1278 ft | 121 kts | 253° |
| 2026-05-08 06:30 | -33.92293 | 151.25186 | 1106 ft | 119 kts | 254° |
| 2026-05-08 06:30 | -33.92522 | 151.24218 | 995 ft | 120 kts | 254° |
| 2026-05-08 06:30 | -33.92748 | 151.23260 | 824 ft | 121 kts | 253° |
| 2026-05-08 06:31 | -33.92986 | 151.22251 | 650 ft | 126 kts | 252° |
| 2026-05-08 06:31 | -33.93225 | 151.21245 | 501 ft | 124 kts | 255° |
| 2026-05-08 06:31 | -33.93460 | 151.20260 | 298 ft | 123 kts | 255° |
| 2026-05-08 06:31 | -33.93695 | 151.19267 | 114 ft | 125 kts | 255° |
| 2026-05-08 06:32 | -33.93920 | 151.18300 | 37 ft | 103 kts | 255° |
| 2026-05-08 06:32 | -33.94064 | 151.17677 | 36 ft | 56 kts | 254° |
| 2026-05-08 06:32 | -33.94139 | 151.17356 | 36 ft | 28 kts | 254° |
| 2026-05-08 06:32 | -33.94147 | 151.17305 | 36 ft | 2 kts | 271° |
| 2026-05-08 06:33 | -33.94131 | 151.17269 | 35 ft | 1 kts | 309° |
| 2026-05-08 06:33 | -33.94110 | 151.17260 | 36 ft | 7 kts | 340° |
| 2026-05-08 06:33 | -33.94059 | 151.17247 | 37 ft | 7 kts | 349° |
| 2026-05-08 06:33 | -33.94008 | 151.17231 | 37 ft | 4 kts | 334° |
| 2026-05-08 06:34 | -33.93987 | 151.17190 | 37 ft | 7 kts | 283° |
| 2026-05-08 06:34 | -33.93997 | 151.17112 | 37 ft | 12 kts | 253° |
| 2026-05-08 06:34 | -33.94027 | 151.16986 | 34 ft | 19 kts | 253° |
| 2026-05-08 06:34 | -33.94055 | 151.16868 | 37 ft | 9 kts | 258° |
| 2026-05-08 06:35 | -33.94050 | 151.16838 | 37 ft | 5 kts | 291° |
| 2026-05-08 06:35 | -33.94008 | 151.16804 | 38 ft | 6 kts | 341° |
| 2026-05-08 06:35 | -33.93986 | 151.16811 | 36 ft | 5 kts | 32° |
| 2026-05-08 06:35 | -33.93963 | 151.16854 | 36 ft | 2 kts | 65° |
| 2026-05-08 06:36 | -33.93955 | 151.16882 | 37 ft | 0 kts | 71° |
| 2026-05-08 06:36 | -33.93953 | 151.16890 | 36 ft | 0 kts | 72° |